Terminal Aerodrome Forecast
Issued by NWS Blacksburg, VA

Current Version | Previous Version | Text Only | Print | Product List | Glossary Off
Versions: 1 2 3 4 5 6 7 8 9 10 11 12 13 14 15 16

000
FTUS41 KRNK 271741
TAFBLF
TAF
KBLF 271741Z 2718/2818 26010KT P6SM VCSH SCT025 OVC040
      TEMPO 2718/2720 BKN025
     FM272000 26009KT P6SM VCTS BKN035CB
      TEMPO 2720/2724 4SM SHRA OVC025
     FM280000 27008KT P6SM VCSH BKN025
     FM280600 VRB03KT P6SM BKN020
     FM280900 23004KT P6SM SCT010
     FM281500 23007KT P6SM BKN100=

USA.gov is the U.S. government's official web portal to all federal, state and local government web resources and services.